»·PEaware :: N354ES KBUR-KSNA

N354ES :: KBUR-KSNA

FLIGHT INFORMATION

Flight Status: Arrived
Operator: Privately registered:
United States
More flights under this callsign
Pilot: Zach C. (22442)
Aircraft: BOEING 737-800
(B738)
More flights by this aircraft type
Origin: KBUR Bob Hope-Burbank
United States
Destination: KSNA John Wayne-Orange Co
United States
More flights between these airports :: More routes between these airports
Route: +VNY3 TWINE V518 KIMMO V459 SLI
File this flight plan on PilotEdge
Remarks: 1st Pilot Edge Flight, Havent done sims in 10+ yrs
Altitude:
(Current/Filed)
8,000ft
Speed:
(Current/Filed)
240kts
Departed: 06-Dec-18 09:26 PM
Arrived: 06-Dec-18 09:51 PM
Distance/Time
Traveled:
40nm/0:25
Distance/Time
To Go:
Arrived

Flight Plot

Page will automatically refresh every two minutes.


Map Options




Map Legend


Flown Route
Filed Route
Departure Airport
Arrival Airport
Navaid (VOR, NDB)
Fix

Horizontal Profiles

Position Reports

Time Latitude Longitude Heading Altitude Ground
Speed
06-Dec-18 20:59 34.200202 -118.358747 263 724ft 0kts
06-Dec-18 20:59 34.200202 -118.358747 263 724ft 0kts
06-Dec-18 21:01 34.200202 -118.358747 263 724ft 0kts
06-Dec-18 21:01 34.200202 -118.358747 263 724ft 0kts
06-Dec-18 21:02 34.200202 -118.358747 263 724ft 0kts
06-Dec-18 21:04 34.200202 -118.358747 263 724ft 0kts
06-Dec-18 21:05 34.200202 -118.358747 263 724ft 0kts
06-Dec-18 21:05 34.200202 -118.358747 263 724ft 0kts
06-Dec-18 21:06 34.200202 -118.358747 263 724ft 0kts
06-Dec-18 21:08 34.200202 -118.358747 263 724ft 0kts
06-Dec-18 21:08 34.200202 -118.358747 263 724ft 0kts
06-Dec-18 21:09 34.200202 -118.358747 263 724ft 0kts
06-Dec-18 21:10 34.200202 -118.358747 263 724ft 0kts
06-Dec-18 21:11 34.200202 -118.358747 263 724ft 0kts
06-Dec-18 21:12 34.200202 -118.358747 263 724ft 0kts
06-Dec-18 21:13 34.200202 -118.358747 263 724ft 0kts
06-Dec-18 21:14 34.200202 -118.358747 263 724ft 0kts
06-Dec-18 21:15 34.200202 -118.358747 263 724ft 0kts
06-Dec-18 21:16 34.200202 -118.358747 263 724ft 0kts
06-Dec-18 21:17 34.200202 -118.358747 263 724ft 0kts
06-Dec-18 21:18 34.200202 -118.358747 263 724ft 0kts
06-Dec-18 21:19 34.200202 -118.358747 263 724ft 0kts
06-Dec-18 21:20 34.200202 -118.358748 263 724ft 0kts
06-Dec-18 21:21 34.200869 -118.359413 340 728ft 16kts
06-Dec-18 21:22 34.206557 -118.360018 347 749ft 21kts
06-Dec-18 21:23 34.211961 -118.361415 19 772ft 0kts
06-Dec-18 21:24 34.211928 -118.360360 163 770ft 17kts
06-Dec-18 21:25 34.177651 -118.355302 202 2015ft 173kts
06-Dec-18 21:26 34.179892 -118.405162 311 2765ft 188kts
06-Dec-18 21:27 34.179779 -118.458459 226 3904ft 196kts
06-Dec-18 21:28 34.147782 -118.508130 286 5243ft 191kts
06-Dec-18 21:29 34.197252 -118.548387 330 8015ft 261kts
06-Dec-18 21:30 34.263805 -118.588245 331 8997ft 273kts
06-Dec-18 21:31 34.337381 -118.588535 29 9022ft 283kts
06-Dec-18 21:32 34.375864 -118.505054 88 11027ft 351kts
06-Dec-18 21:33 34.343223 -118.386123 132 11000ft 385kts
06-Dec-18 21:34 34.252730 -118.328087 173 11012ft 376kts
06-Dec-18 21:35 34.151562 -118.298257 160 11200ft 378kts
06-Dec-18 21:36 34.058389 -118.241672 150 10857ft 385kts
06-Dec-18 21:37 33.969581 -118.180920 151 10964ft 372kts
06-Dec-18 21:38 33.894648 -118.130019 151 10091ft 281kts
06-Dec-18 21:39 33.872914 -118.052060 91 8846ft 241kts
06-Dec-18 21:40 33.873773 -117.979968 91 7070ft 205kts
06-Dec-18 21:41 33.873737 -117.915157 91 5301ft 186kts
06-Dec-18 21:42 33.872714 -117.854576 91 3597ft 179kts
06-Dec-18 21:43 33.870867 -117.798733 91 2993ft 152kts
06-Dec-18 21:44 33.868934 -117.745525 93 2985ft 161kts
06-Dec-18 21:45 33.833051 -117.746818 230 3001ft 193kts
06-Dec-18 21:46 33.799369 -117.795885 213 2976ft 188kts
06-Dec-18 21:47 33.755195 -117.825842 187 2999ft 184kts
06-Dec-18 21:48 33.709573 -117.848075 201 1078ft 174kts
06-Dec-18 21:49 33.673498 -117.870095 207 64ft 115kts
06-Dec-18 21:50 33.667655 -117.872481 54 64ft 0kts
06-Dec-18 21:51 33.669590 -117.870425 41 64ft 18kts
06-Dec-18 21:52 33.671873 -117.867455 66 64ft 10kts
06-Dec-18 21:53 33.671825 -117.867134 114 64ft 0kts
06-Dec-18 21:54 33.671825 -117.867134 114 64ft 0kts
06-Dec-18 21:55 33.671825 -117.867134 114 64ft 0kts
06-Dec-18 21:56 33.671825 -117.867134 114 64ft 0kts
06-Dec-18 21:57 33.671825 -117.867134 114 64ft 0kts
06-Dec-18 21:58 33.671825 -117.867134 114 64ft 0kts
06-Dec-18 21:59 33.671825 -117.867134 114 64ft 0kts
06-Dec-18 22:00 33.671825 -117.867134 114 64ft 0kts
06-Dec-18 22:01 33.671825 -117.867134 114 64ft 0kts

Navigation Log

Ident Type
Flight plan parsing failed, navigation log unavailable